Time;durP1;ratioP1;P1;durP2;ratioP2;P2;SDS_P1;SDS_P2;PMS_P1;PMS_P2;Temp;Humidity;BMP_temperature;BMP_pressure;BME280_temperature;BME280_humidity;BME280_pressure;Samples;Min_cycle;Max_cycle;Signal;HPM_P1;HPM_P2
2022/05/06 00:02:23;;;;;;;5.40;2.38;;;;;;;12.13;100.00;101898.09;5046540;28;20032;-81
2022/05/06 00:04:48;;;;;;;8.35;2.60;;;;;;;11.99;100.00;101868.03;5014879;28;20049;-82
2022/05/06 00:07:15;;;;;;;7.13;3.03;;;;;;;12.19;100.00;101900.16;5025474;28;20080;-81
2022/05/06 00:09:41;;;;;;;6.30;2.38;;;;;;;12.19;100.00;101902.84;5038581;28;20060;-80
2022/05/06 00:12:07;;;;;;;4.82;2.20;;;;;;;12.18;100.00;101895.78;5045980;28;20064;-80
2022/05/06 00:14:35;;;;;;;8.75;3.45;;;;;;;12.22;100.00;101903.38;5045526;28;20540;-80
2022/05/06 00:17:04;;;;;;;11.43;3.20;;;;;;;12.24;100.00;101901.38;5040579;28;20048;-81
2022/05/06 00:19:29;;;;;;;5.97;2.08;;;;;;;12.23;100.00;101904.25;5019933;28;20135;-81
2022/05/06 00:21:58;;;;;;;4.45;2.00;;;;;;;12.26;100.00;101887.72;5054807;28;20112;-80
2022/05/06 00:24:23;;;;;;;5.40;2.35;;;;;;;12.27;100.00;101886.72;5058036;28;20029;-80
2022/05/06 00:26:49;;;;;;;6.30;2.05;;;;;;;12.29;100.00;101882.00;5058821;28;20066;-80
2022/05/06 00:29:16;;;;;;;3.40;1.90;;;;;;;12.29;100.00;101882.84;5090780;28;20159;-79
2022/05/06 00:31:41;;;;;;;4.03;2.10;;;;;;;12.28;100.00;101883.88;5058626;28;20020;-79
2022/05/06 00:34:09;;;;;;;5.43;1.85;;;;;;;12.29;100.00;101880.16;5042581;28;20070;-79
2022/05/06 00:36:34;;;;;;;4.93;1.92;;;;;;;12.33;100.00;101886.06;5059002;28;20141;-81
2022/05/06 00:39:00;;;;;;;4.93;1.75;;;;;;;12.34;100.00;101881.53;5033849;28;20087;-81
2022/05/06 00:41:25;;;;;;;4.80;2.10;;;;;;;12.31;100.00;101880.84;5053276;28;20033;-82
2022/05/06 00:43:51;;;;;;;5.32;1.73;;;;;;;12.24;100.00;101863.63;5047025;28;20609;-79
2022/05/06 00:46:17;;;;;;;5.35;1.90;;;;;;;12.30;100.00;101867.50;5055026;28;20025;-81
2022/05/06 00:48:44;;;;;;;3.78;1.77;;;;;;;12.34;100.00;101873.47;5027561;28;20033;-81
2022/05/06 00:51:10;;;;;;;4.50;1.75;;;;;;;12.31;100.00;101863.84;5030496;28;20086;-80
2022/05/06 00:53:36;;;;;;;5.65;1.80;;;;;;;12.30;100.00;101857.59;5054414;28;20495;-81
2022/05/06 00:56:08;;;;;;;7.82;2.13;;;;;;;12.37;100.00;101865.03;5023636;28;20547;-83
2022/05/06 00:58:33;;;;;;;4.85;1.70;;;;;;;12.36;100.00;101861.50;5019567;28;20036;-81
2022/05/06 01:01:01;;;;;;;4.78;1.60;;;;;;;12.35;100.00;101858.94;5051283;28;20094;-80
2022/05/06 01:03:27;;;;;;;7.20;2.78;;;;;;;12.36;100.00;101864.19;5014451;28;20090;-81
2022/05/06 01:05:53;;;;;;;2.92;1.70;;;;;;;12.36;100.00;101861.50;5033707;28;20128;-81
2022/05/06 01:08:19;;;;;;;8.75;2.55;;;;;;;12.32;100.00;101860.94;5050795;28;20097;-85
2022/05/06 01:10:46;;;;;;;4.55;2.15;;;;;;;12.34;100.00;101868.91;5033307;28;20462;-80
2022/05/06 01:13:11;;;;;;;4.32;2.15;;;;;;;12.34;100.00;101862.66;5033808;28;20079;-80
2022/05/06 01:15:38;;;;;;;5.07;2.20;;;;;;;12.29;100.00;101855.03;5035746;28;20045;-84
2022/05/06 01:18:13;;;;;;;6.97;2.30;;;;;;;12.23;100.00;101853.00;5008399;28;20089;-80
2022/05/06 01:20:48;;;;;;;5.45;1.92;;;;;;;12.21;100.00;101860.41;5053186;28;20474;-83
2022/05/06 01:23:14;;;;;;;5.35;2.05;;;;;;;12.16;100.00;101852.78;5034857;28;20039;-82
2022/05/06 01:25:42;;;;;;;6.65;2.33;;;;;;;12.19;100.00;101865.94;5046382;28;20402;-80
2022/05/06 01:28:11;;;;;;;5.88;2.33;;;;;;;12.12;100.00;101853.25;5035148;28;20082;-80
2022/05/06 01:30:48;;;;;;;6.03;1.98;;;;;;;12.17;100.00;101861.72;5028777;28;20048;-80
2022/05/06 01:33:18;;;;;;;7.68;2.38;;;;;;;12.12;100.00;101854.13;5049844;28;20390;-82
2022/05/06 01:35:47;;;;;;;5.57;2.22;;;;;;;12.12;100.00;101858.63;5046909;28;20494;-81
2022/05/06 01:38:30;;;;;;;5.13;2.05;;;;;;;11.93;100.00;101821.97;5047518;28;20027;-84
2022/05/06 01:41:02;;;;;;;7.50;2.50;;;;;;;12.07;100.00;101843.81;5033922;28;20108;-80
2022/05/06 01:43:35;;;;;;;5.65;2.67;;;;;;;12.05;100.00;101835.03;5041757;28;20052;-85
2022/05/06 01:46:01;;;;;;;4.05;2.17;;;;;;;12.03;100.00;101841.56;5022484;28;20127;-80
2022/05/06 01:48:27;;;;;;;4.85;2.30;;;;;;;11.97;100.00;101834.97;5026105;28;20064;-78
2022/05/06 01:50:53;;;;;;;2.28;1.58;;;;;;;11.92;100.00;101828.38;5030409;28;20045;-81
2022/05/06 01:53:19;;;;;;;3.28;1.60;;;;;;;11.85;100.00;101831.69;5046635;28;20039;-82
2022/05/06 01:55:45;;;;;;;4.68;1.85;;;;;;;11.84;100.00;101837.22;5047743;28;20025;-82
2022/05/06 01:58:11;;;;;;;3.85;1.60;;;;;;;11.62;100.00;101795.47;5012786;28;20374;-81
2022/05/06 02:00:36;;;;;;;3.53;1.48;;;;;;;11.50;100.00;101813.72;5029646;28;20032;-80
2022/05/06 02:03:03;;;;;;;3.35;1.50;;;;;;;11.32;100.00;101804.81;5029435;28;20037;-81
2022/05/06 02:05:29;;;;;;;5.28;1.48;;;;;;;11.23;100.00;101793.97;5030026;28;20139;-81
2022/05/06 02:07:54;;;;;;;2.63;1.67;;;;;;;11.15;100.00;101784.97;5032887;28;20443;-82
2022/05/06 02:10:21;;;;;;;4.63;1.85;;;;;;;11.12;100.00;101799.59;5009414;28;20041;-86
2022/05/06 02:12:48;;;;;;;7.07;1.60;;;;;;;11.03;100.00;101796.97;5030161;28;20033;-81
2022/05/06 02:15:15;;;;;;;3.63;1.63;;;;;;;10.92;100.00;101798.03;5026762;28;20040;-81
2022/05/06 02:17:41;;;;;;;4.22;1.73;;;;;;;10.72;100.00;101767.75;5049777;28;20187;-83
2022/05/06 02:20:09;;;;;;;5.60;1.65;;;;;;;10.83;100.00;101797.13;5029886;28;20040;-81
2022/05/06 02:22:35;;;;;;;2.47;1.30;;;;;;;10.68;100.00;101772.56;5027202;28;20200;-83
2022/05/06 02:25:02;;;;;;;2.40;1.55;;;;;;;10.78;100.00;101781.44;5034579;28;20033;-84
2022/05/06 02:27:28;;;;;;;3.38;1.40;;;;;;;10.74;100.00;101763.03;5049538;28;20055;-81
2022/05/06 02:35:22;;;;;;;3.45;1.52;;;;;;;11.09;100.00;101788.31;5044903;28;20056;-81
2022/05/06 02:37:47;;;;;;;5.13;1.70;;;;;;;11.10;100.00;101781.91;5044726;28;20052;-78
2022/05/06 02:40:14;;;;;;;3.25;1.20;;;;;;;11.17;100.00;101797.28;5040009;28;20063;-85
2022/05/06 02:42:39;;;;;;;2.60;1.60;;;;;;;11.12;100.00;101782.59;5043710;28;20124;-81
2022/05/06 02:45:06;;;;;;;3.75;1.80;;;;;;;11.21;100.00;101795.97;5042432;28;20520;-80
2022/05/06 02:47:31;;;;;;;2.17;1.05;;;;;;;11.20;100.00;101796.13;5047045;28;20505;-83
2022/05/06 02:49:57;;;;;;;2.85;1.23;;;;;;;11.24;100.00;101802.88;5027594;28;20128;-81
2022/05/06 02:52:23;;;;;;;3.85;1.63;;;;;;;11.23;100.00;101793.13;5030509;28;20036;-82
2022/05/06 02:54:49;;;;;;;3.70;1.23;;;;;;;11.25;100.00;101783.06;5044281;28;20075;-81
2022/05/06 02:57:16;;;;;;;3.92;1.17;;;;;;;11.25;100.00;101785.75;5014819;28;20025;-80
2022/05/06 02:59:41;;;;;;;4.22;1.70;;;;;;;11.27;100.00;101786.41;5032045;28;20051;-83
2022/05/06 03:02:07;;;;;;;2.00;1.17;;;;;;;11.22;100.00;101781.53;5043784;28;20039;-82
2022/05/06 03:04:33;;;;;;;1.95;1.23;;;;;;;11.18;100.00;101780.13;5041632;28;20124;-84
2022/05/06 03:06:59;;;;;;;2.80;1.48;;;;;;;11.18;100.00;101784.66;5034391;28;20413;-82
2022/05/06 03:09:25;;;;;;;3.70;1.45;;;;;;;11.06;100.00;101759.84;5028725;28;20071;-80
2022/05/06 03:11:52;;;;;;;1.65;1.13;;;;;;;11.11;100.00;101767.44;5051525;28;20401;-81
2022/05/06 03:14:18;;;;;;;2.47;1.40;;;;;;;11.13;100.00;101774.34;5011895;28;20036;-84
2022/05/06 03:16:46;;;;;;;4.43;1.52;;;;;;;11.15;100.00;101784.97;5028396;28;20101;-81
2022/05/06 03:19:15;;;;;;;3.50;1.40;;;;;;;11.03;100.00;101775.44;5024798;28;20040;-81
2022/05/06 03:21:44;;;;;;;4.18;1.70;;;;;;;11.12;100.00;101791.53;5049217;28;20048;-81
2022/05/06 03:24:10;;;;;;;5.82;1.55;;;;;;;11.10;100.00;101780.06;5045067;28;20028;-82
2022/05/06 03:26:35;;;;;;;3.95;1.15;;;;;;;11.13;100.00;101790.50;5043077;28;22348;-82
2022/05/06 03:29:19;;;;;;;1.88;1.10;;;;;;;11.17;100.00;101788.38;5024809;28;20485;-81
2022/05/06 03:31:45;;;;;;;5.13;1.73;;;;;;;11.15;100.00;101774.22;5050008;28;20035;-85
2022/05/06 03:34:11;;;;;;;2.50;0.93;;;;;;;11.11;100.00;101765.59;5043156;28;20029;-81
2022/05/06 03:36:37;;;;;;;4.30;1.50;;;;;;;10.95;100.00;101746.59;5050034;28;20108;-84
2022/05/06 03:39:03;;;;;;;2.67;1.58;;;;;;;11.07;100.00;101772.28;5010957;28;20043;-83
2022/05/06 03:41:29;;;;;;;8.88;1.35;;;;;;;10.99;100.00;101761.47;5044633;28;20063;-83
2022/05/06 03:43:55;;;;;;;6.57;2.00;;;;;;;10.96;100.00;101764.47;5027904;28;20037;-86
2022/05/06 03:46:20;;;;;;;3.00;1.55;;;;;;;10.89;100.00;101763.38;5045366;28;20864;-83
2022/05/06 03:48:46;;;;;;;2.17;1.40;;;;;;;10.85;100.00;101768.22;5041690;28;22209;-86
2022/05/06 03:51:21;;;;;;;3.35;1.30;;;;;;;10.84;100.00;101763.81;5017738;28;20024;-88
2022/05/06 03:53:51;;;;;;;1.70;0.90;;;;;;;10.80;100.00;101762.47;5049916;28;20032;-85
2022/05/06 03:56:17;;;;;;;2.03;1.38;;;;;;;10.78;100.00;101759.06;5049462;28;20033;-81
2022/05/06 03:58:42;;;;;;;3.60;1.73;;;;;;;10.78;100.00;101753.69;5020885;28;20036;-82
2022/05/06 04:01:08;;;;;;;5.20;1.88;;;;;;;10.83;100.00;101761.31;5046050;28;20438;-84
2022/05/06 04:03:34;;;;;;;2.47;1.40;;;;;;;10.85;100.00;101757.47;5053154;28;20021;-82
2022/05/06 04:06:00;;;;;;;2.95;1.60;;;;;;;10.87;100.00;101743.84;5049190;28;20478;-87
2022/05/06 04:08:25;;;;;;;4.05;1.48;;;;;;;10.93;100.00;101746.78;5048430;28;20119;-81
2022/05/06 04:10:51;;;;;;;7.63;1.92;;;;;;;10.95;100.00;101730.47;5029687;28;20032;-83
2022/05/06 04:13:19;;;;;;;3.85;1.70;;;;;;;11.01;100.00;101746.00;5030870;28;20043;-82
2022/05/06 04:15:46;;;;;;;7.20;1.48;;;;;;;11.02;100.00;101747.69;5034232;28;20033;-83
2022/05/06 04:18:12;;;;;;;4.13;1.95;;;;;;;11.04;100.00;101739.47;5025091;28;20031;-81
2022/05/06 04:23:31;;;;;;;6.43;1.92;;;;;;;11.06;100.00;101738.31;5036966;28;20039;-80
2022/05/06 04:26:02;;;;;;;5.75;1.67;;;;;;;11.03;100.00;101735.06;5044155;28;20040;-82
2022/05/06 04:28:29;;;;;;;5.45;1.67;;;;;;;11.06;100.00;101737.44;5024829;28;20042;-86
2022/05/06 04:30:58;;;;;;;5.93;1.63;;;;;;;11.11;100.00;101748.59;5049025;28;20124;-81
2022/05/06 04:33:27;;;;;;;4.30;1.55;;;;;;;11.09;100.00;101742.53;5022940;28;20112;-81
2022/05/06 04:35:54;;;;;;;5.97;2.00;;;;;;;11.10;100.00;101741.53;5048366;28;20420;-83
2022/05/06 04:38:20;;;;;;;4.38;1.95;;;;;;;11.10;100.00;101738.84;5019131;28;20039;-82
2022/05/06 04:40:47;;;;;;;8.05;2.05;;;;;;;11.11;100.00;101745.91;5036889;28;20063;-82
2022/05/06 04:43:13;;;;;;;2.90;1.50;;;;;;;11.08;100.00;101732.75;5022710;28;20028;-82
2022/05/06 04:45:45;;;;;;;2.60;1.50;;;;;;;11.10;100.00;101745.06;5021523;28;20952;-80
2022/05/06 04:48:12;;;;;;;3.97;1.75;;;;;;;11.08;100.00;101744.38;5018277;28;20093;-84
2022/05/06 04:50:41;;;;;;;3.60;1.88;;;;;;;11.11;100.00;101752.13;5032502;28;20045;-82
2022/05/06 04:53:08;;;;;;;4.47;1.65;;;;;;;11.12;100.00;101753.00;5027393;28;20146;-82
2022/05/06 04:55:41;;;;;;;4.30;1.75;;;;;;;11.10;100.00;101750.44;5037793;28;21997;-81
2022/05/06 04:58:07;;;;;;;3.03;1.50;;;;;;;11.11;100.00;101756.66;5038288;28;20075;-81
2022/05/06 05:00:33;;;;;;;3.80;1.70;;;;;;;11.11;100.00;101748.59;5039149;28;20029;-81
2022/05/06 05:03:00;;;;;;;5.18;1.80;;;;;;;11.10;100.00;101739.69;5037444;28;20040;-81
2022/05/06 05:05:25;;;;;;;6.43;1.90;;;;;;;11.13;100.00;101743.91;5038291;28;20061;-82
2022/05/06 05:07:54;;;;;;;3.15;1.90;;;;;;;11.04;100.00;101740.31;5003411;28;20048;-82
2022/05/06 05:10:20;;;;;;;3.08;1.88;;;;;;;11.13;100.00;101752.00;5038281;28;20044;-81
2022/05/06 05:12:47;;;;;;;7.32;1.92;;;;;;;11.13;100.00;101744.75;5039124;28;20121;-84
2022/05/06 05:15:15;;;;;;;6.20;1.90;;;;;;;11.14;100.00;101748.28;5040639;28;20098;-84
2022/05/06 05:17:44;;;;;;;7.20;1.88;;;;;;;11.15;100.00;101747.28;5042461;28;20375;-81
2022/05/06 05:20:11;;;;;;;4.20;1.80;;;;;;;11.19;100.00;101746.84;5025927;28;20540;-85
2022/05/06 05:22:37;;;;;;;4.80;1.88;;;;;;;11.22;100.00;101749.22;5025984;28;20494;-85
2022/05/06 05:25:03;;;;;;;3.35;1.83;;;;;;;11.18;100.00;101736.22;5050645;28;20049;-87
2022/05/06 05:27:30;;;;;;;4.80;1.45;;;;;;;11.29;100.00;101737.81;5041158;28;20056;-81
2022/05/06 05:29:57;;;;;;;3.65;1.63;;;;;;;11.36;100.00;101737.03;5040953;28;20025;-81
2022/05/06 05:32:23;;;;;;;2.60;1.40;;;;;;;11.40;100.00;101733.00;5036263;28;20052;-81
2022/05/06 05:34:48;;;;;;;2.08;1.40;;;;;;;11.41;100.00;101725.78;5047329;28;20076;-83
2022/05/06 05:37:14;;;;;;;2.45;1.00;;;;;;;11.51;100.00;101731.06;5045691;28;20521;-81
2022/05/06 05:39:39;;;;;;;1.17;0.95;;;;;;;11.55;100.00;101732.44;5051732;28;20379;-81
2022/05/06 05:42:06;;;;;;;1.52;1.08;;;;;;;11.63;100.00;101730.66;5047189;28;20543;-80
2022/05/06 05:50:02;;;;;;;3.90;1.23;;;;;;;11.71;100.00;101737.09;5046355;28;20538;-81
2022/05/06 05:52:29;;;;;;;3.40;1.38;;;;;;;11.76;100.00;101735.59;5043688;28;20063;-81
2022/05/06 05:54:54;;;;;;;2.75;1.30;;;;;;;11.71;100.00;101726.31;5033004;28;20128;-80
2022/05/06 05:57:20;;;;;;;2.03;0.98;;;;;;;11.67;100.00;101731.19;5055984;28;20099;-87
2022/05/06 05:59:47;;;;;;;2.58;1.50;;;;;;;11.64;100.00;101732.34;5050147;28;20040;-82
2022/05/06 06:02:13;;;;;;;2.85;1.23;;;;;;;11.70;100.00;101728.16;5045920;28;20466;-80
2022/05/06 06:04:39;;;;;;;3.50;1.48;;;;;;;11.59;100.00;101723.03;5032136;28;20119;-82
2022/05/06 06:07:05;;;;;;;5.32;1.40;;;;;;;11.50;100.00;101724.00;5014677;28;20033;-82
2022/05/06 06:09:32;;;;;;;3.10;1.30;;;;;;;11.47;100.00;101732.41;5048784;28;20127;-82
2022/05/06 06:12:01;;;;;;;4.25;1.40;;;;;;;11.37;100.00;101721.72;5026346;28;20029;-81
2022/05/06 06:14:26;;;;;;;4.05;1.50;;;;;;;11.34;100.00;101724.72;5038388;28;20048;-82
2022/05/06 06:16:57;;;;;;;5.57;1.77;;;;;;;11.33;100.00;101729.28;5032298;28;20044;-84
2022/05/06 06:19:23;;;;;;;2.17;1.70;;;;;;;11.31;100.00;101733.13;5047412;28;20025;-81
2022/05/06 06:21:48;;;;;;;3.22;1.45;;;;;;;11.30;100.00;101728.72;5041550;28;20043;-81
2022/05/06 06:27:18;;;;;;;6.53;2.47;;;;;;;11.25;100.00;101725.69;5039560;28;20029;-80
2022/05/06 06:29:44;;;;;;;5.63;1.55;;;;;;;11.25;100.00;101718.44;5011952;28;20029;-86
2022/05/06 06:32:16;;;;;;;4.93;1.42;;;;;;;11.02;100.00;101676.88;5009596;28;20041;-81
2022/05/06 06:34:47;;;;;;;3.67;1.65;;;;;;;11.38;100.00;101721.56;5052202;28;20050;-83
2022/05/06 06:37:13;;;;;;;5.85;1.35;;;;;;;11.40;100.00;101729.47;5028470;28;20467;-86
2022/05/06 06:39:39;;;;;;;4.13;1.98;;;;;;;11.37;100.00;101729.78;5008683;28;20045;-83
2022/05/06 06:42:05;;;;;;;3.13;2.00;;;;;;;11.39;100.00;101727.78;5049623;28;20029;-84
2022/05/06 06:44:30;;;;;;;4.35;1.98;;;;;;;11.36;100.00;101728.97;5041966;28;20037;-83
2022/05/06 06:46:56;;;;;;;4.55;1.70;;;;;;;11.35;100.00;101721.88;5013305;28;20047;-85
2022/05/06 06:49:22;;;;;;;1.85;1.10;;;;;;;11.31;100.00;101720.50;5043100;28;20367;-84
2022/05/06 06:51:47;;;;;;;8.40;1.88;;;;;;;11.36;100.00;101731.66;5051293;28;20048;-87
2022/05/06 06:54:13;;;;;;;4.55;1.98;;;;;;;11.36;100.00;101731.66;5030419;28;20036;-83
2022/05/06 06:56:39;;;;;;;4.32;1.65;;;;;;;11.37;100.00;101719.03;5046893;28;20129;-84
2022/05/06 06:59:05;;;;;;;6.75;2.45;;;;;;;11.40;100.00;101724.09;5046108;28;20044;-84
2022/05/06 07:01:33;;;;;;;3.00;1.73;;;;;;;11.45;100.00;101729.84;5034467;28;20060;-84
2022/05/06 07:04:00;;;;;;;3.78;1.60;;;;;;;11.50;100.00;101724.00;5040413;28;20085;-84
2022/05/06 07:11:54;;;;;;;1.65;0.90;;;;;;;11.57;100.00;101727.75;5043796;28;20041;-81
2022/05/06 07:14:21;;;;;;;0.40;0.40;;;;;;;11.57;100.00;101733.16;5039261;28;20040;-79
2022/05/06 07:16:51;;;;;;;0.63;0.63;;;;;;;11.56;100.00;101731.44;5022072;28;20032;-80
2022/05/06 07:19:17;;;;;;;0.40;0.40;;;;;;;11.57;100.00;101728.59;5041112;28;20021;-80
2022/05/06 07:21:42;;;;;;;0.50;0.50;;;;;;;11.64;100.00;101726.97;5031106;28;20090;-80
2022/05/06 07:24:08;;;;;;;0.57;0.57;;;;;;;11.68;100.00;101711.31;5046901;28;20194;-81
2022/05/06 07:26:34;;;;;;;0.40;0.40;;;;;;;11.75;100.00;101719.59;5040157;28;20043;-83
2022/05/06 07:28:59;;;;;;;0.40;0.40;;;;;;;11.77;100.00;101720.28;5047857;28;20478;-84
2022/05/06 07:31:28;;;;;;;0.50;0.50;;;;;;;11.81;100.00;101722.50;5027350;28;20041;-86
2022/05/06 07:33:54;;;;;;;0.40;0.40;;;;;;;11.90;100.00;101725.28;5044344;28;20040;-83
2022/05/06 07:36:20;;;;;;;0.40;0.40;;;;;;;11.90;100.00;101718.03;5032925;28;20017;-83
2022/05/06 07:38:45;;;;;;;0.40;0.40;;;;;;;11.93;100.00;101719.56;5026850;28;20032;-86
2022/05/06 07:41:11;;;;;;;0.60;0.60;;;;;;;11.94;100.00;101723.97;5023698;28;20198;-83
2022/05/06 07:43:36;;;;;;;0.40;0.40;;;;;;;11.93;100.00;101722.25;5038248;28;20222;-82
2022/05/06 07:46:13;;;;;;;0.40;0.40;;;;;;;11.88;100.00;101715.50;5040377;28;20037;-83
2022/05/06 07:48:38;;;;;;;0.40;0.40;;;;;;;11.81;100.00;101708.19;5030804;28;20037;-83
2022/05/06 07:51:10;;;;;;;0.63;0.50;;;;;;;11.81;100.00;101709.03;5032543;28;20136;-81
2022/05/06 07:53:36;;;;;;;0.40;0.40;;;;;;;11.86;100.00;101716.66;5058582;28;20024;-79
2022/05/06 07:56:01;;;;;;;0.40;0.40;;;;;;;11.90;100.00;101714.50;5050030;28;20067;-82
2022/05/06 07:58:27;;;;;;;0.40;0.40;;;;;;;11.92;100.00;101720.56;5017506;28;20040;-80
2022/05/06 08:00:53;;;;;;;0.40;0.40;;;;;;;11.85;100.00;101699.63;5031400;28;20154;-80
2022/05/06 08:06:06;;;;;;;0.40;0.40;;;;;;;12.03;100.00;101720.28;5025714;28;20037;-81
2022/05/06 08:08:31;;;;;;;0.40;0.40;;;;;;;12.12;100.00;101718.44;5026133;28;20086;-79
2022/05/06 08:10:57;;;;;;;0.40;0.40;;;;;;;12.22;100.00;101717.31;5007618;28;20045;-83
2022/05/06 08:13:23;;;;;;;0.40;0.40;;;;;;;12.40;100.00;101711.81;5011228;28;20052;-80
2022/05/06 08:15:54;;;;;;;0.40;0.40;;;;;;;12.37;100.00;101705.91;5037867;28;20537;-83
2022/05/06 08:18:20;;;;;;;0.40;0.40;;;;;;;12.38;100.00;101715.69;5043196;28;20037;-81
2022/05/06 08:20:46;;;;;;;0.40;0.40;;;;;;;12.40;100.00;101719.06;5027004;28;20048;-83
2022/05/06 08:23:11;;;;;;;0.43;0.43;;;;;;;12.41;100.00;101726.13;5035256;28;20116;-79
2022/05/06 08:25:37;;;;;;;0.40;0.40;;;;;;;12.33;100.00;101718.84;5022207;28;20033;-81
2022/05/06 08:28:09;;;;;;;0.40;0.40;;;;;;;12.41;100.00;101726.13;5022364;28;20033;-83
2022/05/06 08:30:35;;;;;;;0.65;0.60;;;;;;;12.40;100.00;101722.59;5040012;28;20032;-83
2022/05/06 08:33:01;;;;;;;0.40;0.40;;;;;;;12.46;100.00;101721.09;5039725;28;20021;-78
2022/05/06 08:35:27;;;;;;;0.40;0.40;;;;;;;12.47;100.00;101707.47;5042821;28;20037;-81
2022/05/06 08:37:53;;;;;;;0.40;0.40;;;;;;;12.62;100.00;101725.69;5025336;28;20056;-79
2022/05/06 08:40:23;;;;;;;0.70;0.70;;;;;;;12.68;100.00;101717.78;5043079;28;20032;-84
2022/05/06 08:42:49;;;;;;;0.40;0.40;;;;;;;12.71;100.00;101724.69;5028031;28;20064;-80
2022/05/06 08:50:53;;;;;;;0.50;0.50;;;;;;;12.76;100.00;101711.56;5049922;28;20674;-79
2022/05/06 08:53:27;;;;;;;0.60;0.60;;;;;;;12.90;100.00;101720.84;5010738;28;20033;-80
2022/05/06 08:55:58;;;;;;;0.68;0.60;;;;;;;13.08;100.00;101721.53;5046808;28;20090;-81
2022/05/06 08:58:25;;;;;;;0.47;0.47;;;;;;;13.18;100.00;101721.38;5033558;28;20029;-80
2022/05/06 09:01:09;;;;;;;1.10;0.70;;;;;;;13.18;100.00;101726.75;5033373;28;20037;-80
2022/05/06 09:03:40;;;;;;;0.40;0.40;;;;;;;13.14;100.00;101720.00;5025448;28;20040;-80
2022/05/06 09:06:19;;;;;;;0.40;0.40;;;;;;;13.10;100.00;101724.91;5048389;28;20018;-80
2022/05/06 09:08:45;;;;;;;0.40;0.40;;;;;;;13.07;100.00;101727.94;5049962;28;20039;-78
2022/05/06 09:11:11;;;;;;;0.50;0.50;;;;;;;13.10;100.00;101726.78;5048476;28;20063;-82
2022/05/06 09:13:40;;;;;;;0.40;0.40;;;;;;;13.13;100.00;101721.88;5048885;28;20123;-79
2022/05/06 09:16:44;;;;;;;0.40;0.40;;;;;;;13.15;100.00;101725.25;5049867;28;20819;-79
2022/05/06 09:19:13;;;;;;;0.40;0.40;;;;;;;13.22;100.00;101725.41;5029925;28;20126;-78
2022/05/06 09:21:40;;;;;;;0.50;0.50;;;;;;;13.19;100.00;101712.25;5047019;28;20040;-81
2022/05/06 09:24:17;;;;;;;0.40;0.40;;;;;;;13.32;100.00;101709.91;5009278;28;20407;-81
2022/05/06 09:27:05;;;;;;;0.50;0.50;;;;;;;13.39;100.00;101718.19;5028398;28;20053;-80
2022/05/06 09:29:37;;;;;;;0.40;0.40;;;;;;;13.36;100.00;101713.97;5048672;28;20394;-80
2022/05/06 09:32:28;;;;;;;0.50;0.50;;;;;;;13.40;100.00;101717.16;5042805;28;20390;-79
2022/05/06 09:35:04;;;;;;;0.40;0.40;;;;;;;13.50;100.00;101720.50;5030896;28;20128;-80
2022/05/06 09:37:40;;;;;;;0.40;0.40;;;;;;;13.55;100.00;101715.44;5045282;28;20313;-78
2022/05/06 09:40:07;;;;;;;0.40;0.40;;;;;;;13.60;100.00;101726.59;5041678;28;20084;-81
2022/05/06 09:42:44;;;;;;;0.40;0.40;;;;;;;13.54;100.00;101711.03;5041554;28;20060;-79
2022/05/06 09:45:14;;;;;;;0.40;0.40;;;;;;;13.59;100.00;101719.47;5045428;28;20441;-80
2022/05/06 09:47:40;;;;;;;0.40;0.40;;;;;;;13.62;100.00;101713.72;5041166;28;20458;-80
2022/05/06 09:50:07;;;;;;;0.40;0.40;;;;;;;13.58;100.00;101719.66;5024818;28;20047;-80
2022/05/06 09:52:33;;;;;;;0.63;0.63;;;;;;;13.56;100.00;101718.97;5013618;28;20037;-84
2022/05/06 09:55:00;;;;;;;0.40;0.40;;;;;;;13.67;100.00;101725.88;5045273;28;20036;-76
2022/05/06 09:57:26;;;;;;;0.50;0.50;;;;;;;13.66;100.00;101711.53;5041996;28;20053;-81
2022/05/06 09:59:52;;;;;;;0.50;0.50;;;;;;;13.80;100.00;101726.19;5047017;28;20530;-79
2022/05/06 10:02:20;;;;;;;0.47;0.47;;;;;;;13.90;100.00;101720.59;5029967;28;20108;-80
2022/05/06 10:04:48;;;;;;;0.77;0.60;;;;;;;14.11;100.00;101730.81;5047672;28;20099;-80
2022/05/06 10:07:16;;;;;;;0.60;0.60;;;;;;;14.17;100.00;101719.28;5034320;28;20025;-85
2022/05/06 10:09:52;;;;;;;0.40;0.40;;;;;;;13.88;100.00;101704.53;5027139;28;20033;-82
2022/05/06 10:12:18;;;;;;;0.60;0.60;;;;;;;13.93;100.00;101733.75;5044664;28;20037;-77
2022/05/06 10:14:44;;;;;;;0.40;0.40;;;;;;;13.84;100.00;101725.66;5012007;28;20132;-82
2022/05/06 10:17:10;;;;;;;0.50;0.50;;;;;;;13.98;100.00;101728.66;5043116;28;20044;-79
2022/05/06 10:19:38;;;;;;;0.40;0.40;;;;;;;14.20;100.00;101732.47;5026462;28;20036;-85
2022/05/06 10:22:05;;;;;;;0.50;0.50;;;;;;;14.47;100.00;101723.88;5032514;28;20044;-82
2022/05/06 10:24:39;;;;;;;0.40;0.40;;;;;;;14.92;100.00;101737.63;5010064;28;20033;-82
2022/05/06 10:27:22;;;;;;;0.40;0.40;;;;;;;15.17;100.00;101741.84;5038283;28;20025;-82
2022/05/06 10:32:55;;;;;;;0.43;0.43;;;;;;;15.01;100.00;101742.00;5040627;28;20036;-83
2022/05/06 10:35:38;;;;;;;0.50;0.50;;;;;;;15.35;100.00;101748.81;5008975;28;20033;-85
2022/05/06 10:38:21;;;;;;;;;;;;;;;15.53;100.00;101746.63;5043158;28;20040;-84
2022/05/06 10:40:59;;;;;;;0.45;0.45;;;;;;;15.38;100.00;101743.88;5030061;28;19924;-85
2022/05/06 10:43:44;;;;;;;1.15;0.70;;;;;;;15.02;100.00;101738.25;5046001;28;20059;-84
2022/05/06 10:46:10;;;;;;;0.40;0.40;;;;;;;15.01;100.00;101746.56;5043099;28;20043;-83
2022/05/06 10:48:36;;;;;;;0.50;0.50;;;;;;;15.22;100.00;101751.31;5022553;28;20033;-85
2022/05/06 10:51:24;;;;;;;0.47;0.47;;;;;;;15.48;100.00;101759.88;5031219;28;20036;-82
2022/05/06 10:53:51;;;;;;;0.50;0.50;;;;;;;15.64;100.00;101748.03;5032786;28;20029;-85
2022/05/06 10:56:16;;;;;;;0.43;0.43;;;;;;;15.84;100.00;101751.06;5027301;28;20036;-85
2022/05/06 10:58:42;;;;;;;0.60;0.60;;;;;;;15.83;100.00;101750.22;5015352;28;20033;-85
2022/05/06 11:01:15;;;;;;;0.50;0.50;;;;;;;15.52;100.00;101716.97;5014313;28;20047;-84
2022/05/06 11:03:54;;;;;;;0.50;0.50;;;;;;;15.78;100.00;101743.69;5045137;28;20383;-84
2022/05/06 11:06:21;;;;;;;0.50;0.50;;;;;;;15.99;100.00;101738.34;5041541;28;20041;-82
2022/05/06 11:08:47;;;;;;;0.45;0.45;;;;;;;16.35;100.00;101739.44;5042552;28;20999;-85
2022/05/06 11:11:19;;;;;;;0.50;0.50;;;;;;;16.79;100.00;101733.91;5005640;28;20043;-81
2022/05/06 11:13:47;;;;;;;0.50;0.50;;;;;;;17.01;100.00;101732.03;5025660;28;20029;-82
2022/05/06 11:16:14;;;;;;;0.50;0.50;;;;;;;17.33;100.00;101732.50;5024087;28;20037;-81
2022/05/06 11:18:45;;;;;;;5.07;0.73;;;;;;;17.55;100.00;101736.88;5026634;28;20486;-83
2022/05/06 11:21:24;;;;;;;0.40;0.40;;;;;;;17.21;100.00;101734.09;5028268;28;20115;-81
2022/05/06 11:23:50;;;;;;;0.40;0.40;;;;;;;16.57;100.00;101740.34;5028300;28;20048;-78
2022/05/06 11:26:26;;;;;;;0.82;0.82;;;;;;;15.52;100.00;101752.22;5046116;28;20029;-80
2022/05/06 11:29:03;;;;;;;0.93;0.55;;;;;;;15.01;100.00;101757.41;5026067;28;20040;-80
2022/05/06 11:31:28;;;;;;;0.45;0.45;;;;;;;14.98;100.00;101760.44;5023613;28;20045;-82
2022/05/06 11:33:57;;;;;;;0.50;0.50;;;;;;;15.09;100.00;101758.19;5014323;28;20040;-81
2022/05/06 11:36:22;;;;;;;0.40;0.40;;;;;;;15.17;100.00;101768.09;5041531;28;20029;-82
2022/05/06 11:38:48;;;;;;;0.45;0.45;;;;;;;15.32;100.00;101762.72;5014250;28;20078;-83
2022/05/06 11:41:16;;;;;;;0.70;0.70;;;;;;;15.50;100.00;101767.81;5044266;28;20021;-81
2022/05/06 11:43:45;;;;;;;0.50;0.50;;;;;;;15.63;100.00;101778.88;5012445;28;20260;-81
2022/05/06 11:48:59;;;;;;;0.50;0.50;;;;;;;15.68;100.00;101786.47;5047050;28;20123;-80
2022/05/06 11:51:30;;;;;;;0.50;0.50;;;;;;;15.53;100.00;101789.13;5008386;28;20135;-82
2022/05/06 11:53:57;;;;;;;0.45;0.45;;;;;;;15.16;100.00;101788.94;5029438;28;20595;-81
2022/05/06 11:56:27;;;;;;;0.43;0.43;;;;;;;14.97;100.00;101788.56;5026162;28;20098;-81
2022/05/06 11:58:56;;;;;;;0.40;0.40;;;;;;;14.78;100.00;101803.41;5043102;28;20155;-80